Time;durP1;ratioP1;P1;durP2;ratioP2;P2;SDS_P1;SDS_P2;PMS_P1;PMS_P2;Temp;Humidity;BMP_temperature;BMP_pressure;BME280_temperature;BME280_humidity;BME280_pressure;Samples;Min_cycle;Max_cycle;Signal;HPM_P1;HPM_P2
2023/12/31 00:00:33;;;;;;;5.18;3.20;;;;;;;7.93;100.00;100215.84;5008007;28;20112;-66
2023/12/31 00:02:59;;;;;;;5.40;2.60;;;;;;;7.99;100.00;100196.91;5013009;28;20060;-65
2023/12/31 00:05:25;;;;;;;5.22;2.35;;;;;;;8.17;100.00;100209.66;5014693;28;20033;-65
2023/12/31 00:07:50;;;;;;;4.30;2.70;;;;;;;8.37;100.00;100200.03;5007203;28;20037;-66
2023/12/31 00:10:17;;;;;;;3.08;2.03;;;;;;;8.53;100.00;100190.47;5003638;28;20048;-65
2023/12/31 00:12:43;;;;;;;4.47;2.30;;;;;;;8.70;100.00;100175.69;5006443;28;20034;-66
2023/12/31 00:15:09;;;;;;;5.68;2.50;;;;;;;8.64;100.00;100174.91;5011468;28;20025;-65
2023/12/31 00:17:34;;;;;;;4.10;2.50;;;;;;;8.63;100.00;100178.38;5008930;28;20041;-65
2023/12/31 00:20:00;;;;;;;3.90;2.25;;;;;;;8.54;100.00;100166.44;5007734;28;20042;-65
2023/12/31 00:22:25;;;;;;;3.97;2.38;;;;;;;8.49;100.00;100163.88;5011395;28;20073;-65
2023/12/31 00:24:54;;;;;;;3.83;2.30;;;;;;;8.47;100.00;100160.47;5003019;28;20034;-65
2023/12/31 00:27:19;;;;;;;3.45;2.30;;;;;;;8.50;100.00;100147.56;5010805;28;20041;-65
2023/12/31 00:29:45;;;;;;;3.63;2.40;;;;;;;8.44;100.00;100150.22;5003083;28;20041;-65
2023/12/31 00:32:10;;;;;;;3.85;2.72;;;;;;;8.42;100.00;100135.66;5013937;28;20520;-65
2023/12/31 00:34:36;;;;;;;6.60;2.63;;;;;;;8.40;100.00;100129.63;5006727;28;20423;-61
2023/12/31 00:37:03;;;;;;;4.18;2.47;;;;;;;8.30;100.00;100121.16;5010204;28;20045;-60
2023/12/31 00:39:28;;;;;;;4.05;2.38;;;;;;;8.30;100.00;100117.72;5009436;28;20752;-61
2023/12/31 00:41:54;;;;;;;7.28;2.95;;;;;;;8.27;100.00;100120.34;5008967;28;20128;-61
2023/12/31 00:44:19;;;;;;;4.38;3.00;;;;;;;8.21;100.00;100113.53;5011760;28;20157;-60
2023/12/31 00:46:45;;;;;;;4.82;2.65;;;;;;;8.09;100.00;100108.50;5017291;28;20037;-61
2023/12/31 00:49:10;;;;;;;3.80;2.55;;;;;;;8.00;100.00;100101.72;5003082;28;20112;-61
2023/12/31 00:51:35;;;;;;;3.63;3.00;;;;;;;7.86;100.00;100097.53;5011307;28;20112;-60
2023/12/31 00:54:01;;;;;;;4.32;2.60;;;;;;;7.83;100.00;100103.53;5009614;28;20488;-61
2023/12/31 00:56:26;;;;;;;4.72;3.42;;;;;;;7.74;100.00;100095.91;5013028;28;20049;-61
2023/12/31 00:58:51;;;;;;;4.05;2.85;;;;;;;7.67;100.00;100099.41;5009646;28;20034;-61
2023/12/31 01:01:17;;;;;;;4.65;3.10;;;;;;;7.63;100.00;100096.84;5014055;28;20041;-61
2023/12/31 01:03:42;;;;;;;6.75;3.25;;;;;;;7.57;100.00;100099.44;5006172;28;20030;-61
2023/12/31 01:06:08;;;;;;;5.07;3.20;;;;;;;7.56;100.00;100093.47;5010883;28;20515;-61
2023/12/31 01:08:34;;;;;;;5.45;3.15;;;;;;;7.50;100.00;100084.94;5007256;28;20042;-61
2023/12/31 01:10:59;;;;;;;4.90;3.15;;;;;;;7.56;100.00;100087.47;5006282;28;20074;-61
2023/12/31 01:13:25;;;;;;;5.53;3.05;;;;;;;7.47;100.00;100082.41;5007999;28;20053;-61
2023/12/31 01:15:50;;;;;;;7.72;3.45;;;;;;;7.36;100.00;100088.44;5005537;28;20576;-60
2023/12/31 01:18:15;;;;;;;4.63;2.78;;;;;;;7.31;100.00;100086.78;5015977;28;20080;-61
2023/12/31 01:20:41;;;;;;;5.47;2.90;;;;;;;7.27;100.00;100082.50;5005457;28;20046;-61
2023/12/31 01:23:06;;;;;;;4.28;2.95;;;;;;;7.26;100.00;100078.25;5008460;28;20045;-61
2023/12/31 01:25:31;;;;;;;5.70;3.05;;;;;;;7.31;100.00;100074.78;5002165;28;20045;-61
2023/12/31 01:27:57;;;;;;;6.13;3.00;;;;;;;7.40;100.00;100073.88;5007357;28;20052;-61
2023/12/31 01:30:23;;;;;;;3.08;2.72;;;;;;;7.55;100.00;100065.19;5010374;28;20200;-62
2023/12/31 01:32:50;;;;;;;3.72;2.60;;;;;;;7.64;100.00;100062.56;5003413;28;20049;-63
2023/12/31 01:35:16;;;;;;;4.60;2.58;;;;;;;7.81;100.00;100056.41;5005576;28;20618;-61
2023/12/31 01:37:41;;;;;;;5.88;2.92;;;;;;;7.88;100.00;100052.91;5008323;28;20092;-62
2023/12/31 01:40:07;;;;;;;6.82;2.50;;;;;;;7.96;100.00;100047.69;5007187;28;20041;-61
2023/12/31 01:42:32;;;;;;;4.50;3.10;;;;;;;8.04;100.00;100057.94;5002105;28;20095;-61
2023/12/31 01:44:58;;;;;;;4.53;2.53;;;;;;;8.11;100.00;100046.69;5007309;28;20033;-62
2023/12/31 01:47:23;;;;;;;3.83;2.63;;;;;;;8.15;100.00;100038.94;5007818;28;20038;-61
2023/12/31 01:49:50;;;;;;;4.00;2.60;;;;;;;8.17;100.00;100041.47;5012047;28;20049;-62
2023/12/31 01:52:15;;;;;;;5.30;2.88;;;;;;;8.24;100.00;100027.69;5000444;28;20824;-61
2023/12/31 01:54:41;;;;;;;6.28;2.70;;;;;;;8.19;100.00;100030.28;5010651;28;20037;-61
2023/12/31 01:57:09;;;;;;;3.78;2.58;;;;;;;8.18;100.00;100032.91;5003722;28;20040;-61
2023/12/31 01:59:34;;;;;;;6.60;2.83;;;;;;;8.30;100.00;100025.91;5009250;28;20132;-62
2023/12/31 02:01:59;;;;;;;5.30;2.88;;;;;;;8.35;100.00;100018.13;5012817;28;20042;-61
2023/12/31 02:04:32;;;;;;;4.25;2.33;;;;;;;8.34;100.00;100016.41;5007745;28;20049;-62
2023/12/31 02:06:59;;;;;;;3.70;2.78;;;;;;;8.42;100.00;100012.03;5008260;28;20443;-62
2023/12/31 02:09:25;;;;;;;6.35;2.65;;;;;;;8.40;100.00;100006.88;5009284;28;20536;-61
2023/12/31 02:11:50;;;;;;;3.13;2.40;;;;;;;8.45;100.00;99999.13;5006295;28;20041;-62
2023/12/31 02:14:16;;;;;;;4.78;2.75;;;;;;;8.40;100.00;99993.16;5006491;28;20045;-62
2023/12/31 02:16:42;;;;;;;5.70;2.63;;;;;;;8.42;100.00;99991.44;5002259;28;20095;-61
2023/12/31 02:19:07;;;;;;;4.40;2.38;;;;;;;8.41;100.00;99987.16;5001577;28;20038;-61
2023/12/31 02:21:33;;;;;;;5.68;3.08;;;;;;;8.48;100.00;99975.91;5007148;28;20136;-60
2023/12/31 02:23:58;;;;;;;3.67;2.50;;;;;;;8.48;100.00;99958.75;5020491;28;20034;-61
2023/12/31 02:26:24;;;;;;;8.40;2.85;;;;;;;8.55;100.00;99964.63;5004558;28;20038;-61
2023/12/31 02:28:50;;;;;;;3.75;3.00;;;;;;;8.63;100.00;99947.38;5001553;28;20041;-61
2023/12/31 02:31:15;;;;;;;3.35;2.42;;;;;;;8.69;100.00;99936.13;5005007;28;20064;-61
2023/12/31 02:33:41;;;;;;;3.90;2.47;;;;;;;8.76;100.00;99923.13;5005021;28;20049;-61
2023/12/31 02:36:06;;;;;;;4.03;2.55;;;;;;;8.81;100.00;99910.19;5003313;28;20080;-61
2023/12/31 02:38:32;;;;;;;3.90;2.40;;;;;;;8.85;100.00;99914.41;5008156;28;20046;-65
2023/12/31 02:40:57;;;;;;;5.43;2.90;;;;;;;8.84;100.00;99908.41;5007662;28;20095;-65
2023/12/31 02:43:23;;;;;;;4.32;2.00;;;;;;;8.79;100.00;99907.63;5008015;28;20041;-61
2023/12/31 02:45:48;;;;;;;3.92;2.25;;;;;;;8.74;100.00;99898.25;5011443;28;20088;-61
2023/12/31 02:48:13;;;;;;;6.15;2.60;;;;;;;8.74;100.00;99895.69;5013238;28;20124;-61
2023/12/31 02:50:39;;;;;;;6.30;2.83;;;;;;;8.76;100.00;99894.78;5009980;28;20029;-62
2023/12/31 02:53:04;;;;;;;5.38;2.90;;;;;;;8.74;100.00;99885.38;5008878;28;20049;-62
2023/12/31 02:55:29;;;;;;;3.63;2.50;;;;;;;8.74;100.00;99875.94;5007253;28;20126;-64
2023/12/31 02:57:55;;;;;;;4.70;2.30;;;;;;;8.76;100.00;99871.59;5006336;28;20053;-62
2023/12/31 03:00:20;;;;;;;4.85;2.80;;;;;;;8.76;100.00;99861.28;5008627;28;20068;-62
2023/12/31 03:02:46;;;;;;;4.68;2.00;;;;;;;8.74;100.00;99860.47;5014087;28;20041;-63
2023/12/31 03:05:12;;;;;;;4.78;2.28;;;;;;;8.74;100.00;99854.47;5008827;28;20042;-62
2023/12/31 03:07:38;;;;;;;4.20;2.40;;;;;;;8.75;100.00;99849.31;5012303;28;20041;-62
2023/12/31 03:10:03;;;;;;;3.88;2.30;;;;;;;8.74;100.00;99846.75;5003843;28;20088;-62
2023/12/31 03:12:29;;;;;;;2.88;2.20;;;;;;;8.73;100.00;99843.31;5014091;28;20046;-62
2023/12/31 03:14:55;;;;;;;3.92;2.20;;;;;;;8.71;100.00;99837.34;5011653;28;20034;-62
2023/12/31 03:17:21;;;;;;;4.30;2.38;;;;;;;8.76;100.00;99824.38;5018549;28;20033;-61
2023/12/31 03:19:47;;;;;;;4.28;2.25;;;;;;;8.76;100.00;99826.94;5010993;28;20052;-61
2023/12/31 03:22:13;;;;;;;4.82;2.28;;;;;;;8.74;100.00;99819.25;5012356;28;20404;-61
2023/12/31 03:24:40;;;;;;;5.32;2.33;;;;;;;8.78;100.00;99815.75;5012489;28;20025;-62
2023/12/31 03:27:06;;;;;;;3.47;2.30;;;;;;;8.80;99.63;99803.69;5015968;28;20080;-62
2023/12/31 03:29:31;;;;;;;3.17;2.42;;;;;;;8.82;99.84;99811.38;5011888;28;20492;-62
2023/12/31 03:31:56;;;;;;;4.13;2.00;;;;;;;8.83;99.88;99803.66;5017497;28;20041;-62
2023/12/31 03:34:22;;;;;;;4.10;2.15;;;;;;;8.77;99.54;99806.31;5015209;28;20037;-62
2023/12/31 03:36:47;;;;;;;4.10;2.28;;;;;;;8.78;99.60;99810.63;5014203;28;20886;-59
2023/12/31 03:39:14;;;;;;;3.22;2.30;;;;;;;8.76;100.00;99802.03;5015899;28;20033;-58
2023/12/31 03:41:39;;;;;;;6.50;2.40;;;;;;;8.76;99.62;99796.88;5005374;28;20853;-59
2023/12/31 03:44:05;;;;;;;3.72;1.90;;;;;;;8.77;99.25;99785.72;5017116;28;20107;-59
2023/12/31 03:46:31;;;;;;;3.03;2.10;;;;;;;8.78;99.85;99784.84;5007527;28;20041;-59
2023/12/31 03:48:56;;;;;;;4.43;2.60;;;;;;;8.78;99.04;99779.69;5015636;28;20102;-58
2023/12/31 03:51:22;;;;;;;4.47;2.00;;;;;;;8.76;99.93;99759.97;5008469;28;20113;-58
2023/12/31 03:53:47;;;;;;;4.28;2.70;;;;;;;8.82;99.55;99752.97;5015207;28;20045;-58
2023/12/31 03:56:13;;;;;;;3.28;1.98;;;;;;;8.80;99.11;99741.84;5009875;28;20097;-59
2023/12/31 03:58:38;;;;;;;4.60;2.00;;;;;;;8.86;98.24;99736.59;5012023;28;20072;-59
2023/12/31 04:01:04;;;;;;;2.33;1.90;;;;;;;8.88;98.34;99726.25;5014801;28;20041;-59
2023/12/31 04:03:29;;;;;;;4.13;1.92;;;;;;;8.92;97.93;99713.28;5016427;28;20099;-59
2023/12/31 04:05:54;;;;;;;2.63;2.13;;;;;;;8.93;96.95;99720.13;5006319;28;20037;-59
2023/12/31 04:08:20;;;;;;;4.20;2.08;;;;;;;8.93;97.60;99709.00;5010794;28;20484;-59
2023/12/31 04:10:45;;;;;;;2.80;1.83;;;;;;;8.94;96.83;99706.38;5013842;28;20045;-61
2023/12/31 04:13:11;;;;;;;4.00;1.90;;;;;;;8.97;97.45;99701.16;5002176;28;20044;-59
2023/12/31 04:15:36;;;;;;;9.35;2.28;;;;;;;9.00;96.91;99695.09;5006087;28;20030;-59
2023/12/31 04:18:02;;;;;;;3.63;1.77;;;;;;;9.03;95.74;99680.44;5008643;28;20030;-58
2023/12/31 04:20:27;;;;;;;5.30;2.20;;;;;;;9.05;95.16;99675.25;5010949;28;20046;-59
2023/12/31 04:22:53;;;;;;;3.53;1.80;;;;;;;9.06;94.98;99682.94;5007443;28;20083;-61
2023/12/31 04:25:18;;;;;;;3.85;1.60;;;;;;;9.11;95.41;99678.53;5006576;28;20053;-62
2023/12/31 04:27:44;;;;;;;4.63;2.10;;;;;;;9.26;93.68;99661.09;5010245;28;20488;-61
2023/12/31 04:30:11;;;;;;;3.72;2.33;;;;;;;9.22;94.65;99667.19;5008980;28;20029;-58
2023/12/31 04:32:36;;;;;;;4.25;1.73;;;;;;;9.15;94.06;99674.19;5007229;28;20142;-59
2023/12/31 04:35:03;;;;;;;5.55;1.80;;;;;;;9.20;93.33;99667.19;5011753;28;20034;-62
2023/12/31 04:37:30;;;;;;;3.55;1.92;;;;;;;9.22;93.58;99644.81;5009710;28;20040;-62
2023/12/31 04:39:55;;;;;;;3.72;1.73;;;;;;;9.24;92.65;99655.09;5008600;28;20124;-62
2023/12/31 04:42:20;;;;;;;2.97;1.63;;;;;;;9.27;92.74;99647.28;5005641;28;20034;-58
2023/12/31 04:44:46;;;;;;;4.38;2.25;;;;;;;9.23;93.27;99648.25;5012559;28;20034;-59
2023/12/31 04:47:11;;;;;;;4.10;1.90;;;;;;;9.18;93.39;99650.91;5007645;28;20157;-59
2023/12/31 04:49:36;;;;;;;3.10;1.38;;;;;;;9.18;93.08;99640.59;5005787;28;20759;-58
2023/12/31 04:52:02;;;;;;;5.03;2.30;;;;;;;9.15;92.22;99630.34;5004420;28;20042;-59
2023/12/31 04:54:27;;;;;;;2.17;1.65;;;;;;;9.18;93.05;99637.16;5011335;28;20863;-59
2023/12/31 04:56:53;;;;;;;2.72;1.85;;;;;;;9.12;93.46;99636.44;5006888;28;20409;-59
2023/12/31 04:59:18;;;;;;;3.22;1.65;;;;;;;9.12;92.85;99627.84;5013027;28;20647;-58
2023/12/31 05:01:44;;;;;;;2.95;1.65;;;;;;;9.15;92.52;99620.03;5006517;28;20061;-59
2023/12/31 05:04:09;;;;;;;4.82;2.22;;;;;;;9.14;92.85;99615.75;5010146;28;20085;-58
2023/12/31 05:06:34;;;;;;;4.75;2.00;;;;;;;9.14;92.67;99619.19;5006970;28;20033;-59
2023/12/31 05:09:00;;;;;;;5.57;2.17;;;;;;;9.13;92.04;99612.34;5011940;28;20029;-59
2023/12/31 05:11:28;;;;;;;4.30;1.70;;;;;;;9.14;92.70;99606.28;5007825;28;20042;-59
2023/12/31 05:13:53;;;;;;;3.05;1.90;;;;;;;9.12;92.13;99604.63;5012908;28;20037;-59
2023/12/31 05:16:19;;;;;;;2.10;1.58;;;;;;;9.16;92.56;99597.69;5004610;28;20107;-59
2023/12/31 05:18:50;;;;;;;4.40;1.95;;;;;;;9.13;91.75;99603.78;5020327;28;20040;-59
2023/12/31 05:21:16;;;;;;;2.45;1.65;;;;;;;9.12;92.34;99590.03;5005337;28;20029;-60
2023/12/31 05:23:41;;;;;;;4.07;1.58;;;;;;;9.16;91.57;99587.38;5016634;28;20042;-60
2023/12/31 05:26:07;;;;;;;2.58;1.55;;;;;;;9.21;91.53;99583.81;5000207;28;20045;-59
2023/12/31 05:28:32;;;;;;;1.85;1.50;;;;;;;9.23;90.43;99576.88;5015641;28;20091;-60
2023/12/31 05:30:57;;;;;;;3.17;1.73;;;;;;;9.26;90.90;99581.16;5001906;28;20572;-59
2023/12/31 05:33:23;;;;;;;5.35;1.90;;;;;;;9.27;90.19;99570.78;5009930;28;20029;-59
2023/12/31 05:35:48;;;;;;;3.00;1.70;;;;;;;9.29;90.56;99571.59;5010224;28;20096;-62
2023/12/31 05:38:14;;;;;;;2.45;1.55;;;;;;;9.26;90.01;99569.09;5016668;28;20049;-62
2023/12/31 05:40:39;;;;;;;4.00;2.00;;;;;;;9.32;90.10;99557.78;5004018;28;20053;-65
2023/12/31 05:43:05;;;;;;;2.72;1.60;;;;;;;9.29;89.89;99548.38;5009457;28;20045;-63
2023/12/31 05:45:30;;;;;;;2.08;1.65;;;;;;;9.29;90.25;99561.28;5003069;28;20040;-64
2023/12/31 05:47:56;;;;;;;4.97;1.80;;;;;;;9.27;89.92;99550.16;5014023;28;20033;-59
2023/12/31 05:50:21;;;;;;;2.45;1.50;;;;;;;9.33;89.26;99539.72;5003157;28;20045;-60
2023/12/31 05:52:46;;;;;;;3.50;2.00;;;;;;;9.30;89.43;99547.53;5012313;28;20162;-59
2023/12/31 05:55:12;;;;;;;3.30;1.65;;;;;;;9.34;89.29;99538.84;5009000;28;20100;-62
2023/12/31 05:57:39;;;;;;;3.38;1.75;;;;;;;9.36;88.80;99536.22;5006054;28;20516;-59
2023/12/31 06:00:05;;;;;;;2.42;1.58;;;;;;;9.33;88.24;99521.66;5001481;28;20030;-59
2023/12/31 06:02:31;;;;;;;2.10;1.40;;;;;;;9.38;88.55;99503.50;5004281;28;21850;-62
2023/12/31 06:04:57;;;;;;;2.20;1.40;;;;;;;9.36;88.55;99507.84;5010360;28;20042;-62
2023/12/31 06:07:24;;;;;;;2.47;1.60;;;;;;;9.33;89.28;99502.75;5007919;28;20107;-62
2023/12/31 06:09:49;;;;;;;2.78;1.60;;;;;;;9.30;89.02;99516.56;5008666;28;20734;-62
2023/12/31 06:12:14;;;;;;;2.00;1.38;;;;;;;9.27;89.25;99515.78;5003173;28;20042;-62
2023/12/31 06:14:40;;;;;;;3.10;1.63;;;;;;;9.33;88.12;99511.34;5006474;28;20030;-61
2023/12/31 06:17:05;;;;;;;4.55;1.42;;;;;;;9.33;88.38;99508.78;5011863;28;20033;-61
2023/12/31 06:19:30;;;;;;;2.55;1.50;;;;;;;9.32;88.25;99509.66;5010168;28;20068;-62
2023/12/31 06:21:56;;;;;;;1.92;1.50;;;;;;;9.32;88.16;99506.22;5007999;28;20029;-62
2023/12/31 06:24:21;;;;;;;2.92;1.67;;;;;;;9.31;88.54;99501.97;5005791;28;20025;-59
2023/12/31 06:26:46;;;;;;;2.83;1.67;;;;;;;9.31;88.12;99507.13;5000698;28;20054;-62
2023/12/31 06:29:12;;;;;;;2.33;1.40;;;;;;;9.34;87.89;99491.56;5004066;28;20056;-62
2023/12/31 06:31:37;;;;;;;1.73;1.30;;;;;;;9.30;88.38;99513.16;5011983;28;20045;-63
2023/12/31 06:34:03;;;;;;;2.88;1.67;;;;;;;9.26;88.55;99514.94;5010316;28;20051;-62
2023/12/31 06:36:28;;;;;;;3.85;1.95;;;;;;;9.34;87.90;99507.03;5008707;28;20115;-62
2023/12/31 06:38:54;;;;;;;1.92;1.40;;;;;;;9.32;88.32;99516.53;5004847;28;20125;-62
2023/12/31 06:41:19;;;;;;;3.40;1.88;;;;;;;9.34;87.03;99492.44;5009620;28;20118;-63
2023/12/31 06:43:45;;;;;;;2.45;1.55;;;;;;;9.39;87.23;99500.03;5009139;28;20092;-62
2023/12/31 06:46:10;;;;;;;2.83;1.52;;;;;;;9.39;87.49;99497.47;5012559;28;20057;-63
2023/12/31 06:48:36;;;;;;;2.55;1.40;;;;;;;9.35;87.70;99490.66;5001300;28;20043;-63
2023/12/31 06:51:01;;;;;;;2.97;1.70;;;;;;;9.39;87.18;99500.03;5002491;28;20117;-62
2023/12/31 06:53:27;;;;;;;2.15;1.40;;;;;;;9.42;86.41;99477.59;5011756;28;20853;-63
2023/12/31 06:55:53;;;;;;;5.63;1.63;;;;;;;9.38;87.67;99494.03;5002037;28;20083;-63
2023/12/31 06:58:18;;;;;;;3.63;1.70;;;;;;;9.34;87.61;99489.00;5005732;28;20452;-62
2023/12/31 07:00:43;;;;;;;2.30;1.58;;;;;;;9.37;87.53;99486.34;5017476;28;20033;-63
2023/12/31 07:03:08;;;;;;;2.15;1.42;;;;;;;9.35;87.27;99477.78;5014761;28;20624;-63
2023/12/31 07:05:34;;;;;;;3.85;1.63;;;;;;;9.35;86.42;99468.31;5014833;28;20065;-63
2023/12/31 07:07:59;;;;;;;2.22;1.48;;;;;;;9.37;87.07;99470.88;5007412;28;20566;-62
2023/12/31 07:10:24;;;;;;;2.80;1.48;;;;;;;9.35;87.36;99465.75;5016858;28;20037;-63
2023/12/31 07:12:50;;;;;;;1.98;1.52;;;;;;;9.39;86.99;99462.22;5006146;28;20053;-64
2023/12/31 07:15:16;;;;;;;2.35;1.42;;;;;;;9.38;87.46;99467.38;5014263;28;20572;-62
2023/12/31 07:17:41;;;;;;;3.10;1.42;;;;;;;9.43;86.24;99447.50;5012966;28;21010;-62
2023/12/31 07:20:07;;;;;;;1.80;1.10;;;;;;;9.36;86.50;99456.28;5007748;28;20092;-65
2023/12/31 07:22:33;;;;;;;2.50;1.60;;;;;;;9.35;86.70;99452.84;5015619;28;20056;-66
2023/12/31 07:25:00;;;;;;;3.35;1.70;;;;;;;9.36;86.87;99467.44;5014293;28;20785;-66
2023/12/31 07:27:26;;;;;;;3.95;1.50;;;;;;;9.35;87.21;99464.88;5009748;28;20029;-66
2023/12/31 07:29:51;;;;;;;1.75;1.33;;;;;;;9.37;86.95;99448.53;5011586;28;20758;-59
2023/12/31 07:32:16;;;;;;;2.45;1.48;;;;;;;9.30;86.42;99459.00;5008754;28;20042;-66
2023/12/31 07:34:42;;;;;;;2.40;1.40;;;;;;;9.29;87.14;99437.53;5009790;28;20038;-66
2023/12/31 07:37:07;;;;;;;2.38;1.58;;;;;;;9.23;87.35;99453.13;5012531;28;20516;-63
2023/12/31 07:39:32;;;;;;;3.67;2.05;;;;;;;9.23;87.32;99454.91;5014480;28;20449;-62
2023/12/31 07:41:58;;;;;;;3.97;1.55;;;;;;;9.30;86.72;99446.09;5006071;28;20392;-62
2023/12/31 07:44:23;;;;;;;3.65;2.15;;;;;;;9.38;86.88;99439.03;5007005;28;20053;-62
2023/12/31 07:46:49;;;;;;;2.45;1.90;;;;;;;9.49;85.96;99424.16;5008951;28;20491;-62
2023/12/31 07:49:15;;;;;;;3.22;1.60;;;;;;;9.53;85.97;99423.16;5008920;28;20052;-62
2023/12/31 07:51:40;;;;;;;3.47;1.55;;;;;;;9.50;85.67;99423.25;5005841;28;20042;-61
2023/12/31 07:54:06;;;;;;;4.68;1.88;;;;;;;9.54;85.94;99409.41;5015691;28;20547;-59
2023/12/31 07:56:31;;;;;;;3.00;1.67;;;;;;;9.56;85.71;99395.56;5008435;28;20064;-59
2023/12/31 07:58:57;;;;;;;3.58;1.75;;;;;;;9.55;84.99;99400.78;5004752;28;20048;-59
2023/12/31 08:01:22;;;;;;;4.00;1.60;;;;;;;9.49;84.70;99395.78;5006255;28;20038;-59
2023/12/31 08:03:49;;;;;;;2.72;1.70;;;;;;;9.51;84.92;99397.44;5004379;28;20042;-59
2023/12/31 08:06:14;;;;;;;3.35;1.77;;;;;;;9.55;84.63;99382.72;5006230;28;20125;-59
2023/12/31 08:08:40;;;;;;;2.60;1.88;;;;;;;9.56;84.82;99366.34;5000274;28;20041;-59
2023/12/31 08:11:05;;;;;;;2.55;1.40;;;;;;;9.63;84.60;99350.72;5008258;28;20045;-59
2023/12/31 08:13:31;;;;;;;3.17;1.70;;;;;;;9.67;84.88;99344.56;5004790;28;20479;-59
2023/12/31 08:15:56;;;;;;;2.45;1.48;;;;;;;9.71;84.79;99340.16;5008514;28;20046;-59
2023/12/31 08:18:22;;;;;;;2.33;1.65;;;;;;;9.79;83.43;99343.41;5008857;28;20065;-59
2023/12/31 08:20:47;;;;;;;2.60;1.80;;;;;;;9.79;84.66;99352.88;5006757;28;20064;-59
2023/12/31 08:23:12;;;;;;;3.85;2.08;;;;;;;9.79;84.79;99365.78;5002947;28;20065;-60
2023/12/31 08:25:38;;;;;;;3.83;2.00;;;;;;;9.83;84.61;99349.28;5001729;28;20124;-60
2023/12/31 08:28:04;;;;;;;2.88;1.60;;;;;;;9.87;83.81;99345.75;5005347;28;20521;-59
2023/12/31 08:30:29;;;;;;;2.75;1.70;;;;;;;9.92;83.84;99357.63;5010570;28;20037;-59
2023/12/31 08:32:54;;;;;;;3.20;1.90;;;;;;;9.99;83.26;99353.16;5004084;28;20038;-58
2023/12/31 08:35:22;;;;;;;3.33;1.80;;;;;;;10.04;83.29;99343.53;5008426;28;20428;-61
2023/12/31 08:37:48;;;;;;;3.72;2.05;;;;;;;10.08;83.68;99332.25;5013158;28;20064;-62
2023/12/31 08:40:14;;;;;;;2.45;1.90;;;;;;;10.13;82.80;99327.78;5018236;28;20590;-61
2023/12/31 08:42:40;;;;;;;4.95;2.20;;;;;;;10.19;82.76;99343.09;5008114;28;20037;-62
2023/12/31 08:45:10;;;;;;;3.95;2.65;;;;;;;10.30;82.99;99337.63;5005341;28;20480;-62
2023/12/31 08:47:36;;;;;;;2.70;1.92;;;;;;;10.37;81.57;99306.38;5009374;28;20136;-61
2023/12/31 08:50:07;;;;;;;3.88;2.30;;;;;;;10.44;81.55;99304.47;5009567;28;20128;-61
2023/12/31 08:52:33;;;;;;;5.28;2.20;;;;;;;10.47;81.56;99315.56;5004650;28;20042;-62
2023/12/31 08:54:59;;;;;;;3.95;2.40;;;;;;;10.56;81.43;99299.75;5008314;28;20029;-61
2023/12/31 08:57:24;;;;;;;6.00;2.13;;;;;;;10.62;81.00;99301.31;5002218;28;20064;-61
2023/12/31 08:59:49;;;;;;;8.27;3.35;;;;;;;10.65;80.96;99312.38;5006053;28;20145;-62
2023/12/31 09:02:15;;;;;;;3.72;2.20;;;;;;;10.67;81.29;99314.91;5001590;28;20128;-61
2023/12/31 09:04:40;;;;;;;6.97;2.30;;;;;;;10.66;80.84;99314.06;5011367;28;20136;-61
2023/12/31 09:07:05;;;;;;;4.43;2.55;;;;;;;10.63;81.68;99311.56;5007594;28;20038;-61
2023/12/31 09:09:31;;;;;;;4.35;2.38;;;;;;;10.63;81.16;99314.16;5002966;28;20029;-61
2023/12/31 09:11:56;;;;;;;2.90;2.30;;;;;;;10.63;81.66;99328.81;5006349;28;20114;-61
2023/12/31 09:14:21;;;;;;;4.47;2.47;;;;;;;10.69;81.28;99320.88;5008113;28;20053;-62
2023/12/31 09:16:47;;;;;;;4.03;2.47;;;;;;;10.78;81.98;99315.41;5005313;28;20050;-61
2023/12/31 09:19:12;;;;;;;4.88;2.60;;;;;;;10.83;80.86;99302.34;5006535;28;20033;-62
2023/12/31 09:21:37;;;;;;;4.07;2.60;;;;;;;10.82;81.16;99298.91;5003637;28;20046;-61
2023/12/31 09:24:03;;;;;;;3.95;2.58;;;;;;;10.83;81.27;99308.38;5010626;28;20626;-62
2023/12/31 09:26:28;;;;;;;4.45;2.35;;;;;;;10.82;81.44;99306.66;5005715;28;20096;-61
2023/12/31 09:28:54;;;;;;;4.07;2.53;;;;;;;10.84;81.04;99320.38;5007885;28;20131;-61
2023/12/31 09:31:24;;;;;;;3.05;2.53;;;;;;;10.90;81.22;99315.00;5008295;28;20049;-64
2023/12/31 09:33:50;;;;;;;5.78;2.90;;;;;;;10.95;80.20;99312.28;5010074;28;20496;-64
2023/12/31 09:36:15;;;;;;;4.75;2.88;;;;;;;10.98;81.80;99331.09;5013409;28;20044;-65
2023/12/31 09:38:41;;;;;;;5.13;2.92;;;;;;;11.05;80.38;99311.06;5009573;28;20042;-65
2023/12/31 09:41:06;;;;;;;4.80;2.92;;;;;;;11.13;80.70;99315.09;5008725;28;20034;-64
2023/12/31 09:43:34;;;;;;;3.47;2.65;;;;;;;11.20;80.03;99311.41;5011547;28;20030;-64
2023/12/31 09:46:00;;;;;;;4.10;2.90;;;;;;;11.31;79.67;99298.94;5007922;28;20060;-64
2023/12/31 09:48:26;;;;;;;3.38;2.47;;;;;;;11.41;79.20;99298.63;5011276;28;20041;-64
2023/12/31 09:50:51;;;;;;;4.13;2.72;;;;;;;11.52;79.24;99293.94;5007271;28;20042;-64
2023/12/31 09:53:19;;;;;;;4.15;2.60;;;;;;;11.63;78.98;99284.06;5000108;28;20049;-64
2023/12/31 09:55:45;;;;;;;5.40;2.65;;;;;;;11.70;77.87;99267.41;5003496;28;20051;-64
2023/12/31 09:58:13;;;;;;;5.82;2.80;;;;;;;11.66;78.09;99265.84;5006746;28;20034;-64
2023/12/31 10:00:38;;;;;;;3.55;2.63;;;;;;;11.70;78.05;99254.47;5012976;28;20033;-64
2023/12/31 10:03:05;;;;;;;3.45;2.30;;;;;;;11.74;78.02;99258.63;5001168;28;20036;-64
2023/12/31 10:05:32;;;;;;;4.15;2.80;;;;;;;11.75;78.57;99291.41;5002629;28;20049;-65
2023/12/31 10:07:59;;;;;;;6.82;3.40;;;;;;;11.76;78.93;99300.81;5006504;28;20042;-64
2023/12/31 10:10:27;;;;;;;3.58;2.80;;;;;;;11.71;80.09;99334.66;5007901;28;20038;-65
2023/12/31 10:12:52;;;;;;;3.10;2.30;;;;;;;11.63;79.46;99312.53;5005869;28;20102;-64
2023/12/31 10:15:17;;;;;;;3.05;2.47;;;;;;;11.58;80.10;99298.91;5005582;28;20460;-64
2023/12/31 10:17:43;;;;;;;3.83;2.78;;;;;;;11.48;80.62;99311.34;5009861;28;20557;-64
2023/12/31 10:20:08;;;;;;;3.60;2.63;;;;;;;11.46;81.14;99315.72;5010065;28;20879;-64
2023/12/31 10:22:37;;;;;;;3.75;2.58;;;;;;;11.45;81.21;99328.72;5007639;28;20061;-64
2023/12/31 10:25:15;;;;;;;3.20;2.30;;;;;;;11.53;80.98;99321.53;5004444;28;20545;-60
2023/12/31 10:27:47;;;;;;;5.25;2.30;;;;;;;11.55;81.42;99327.47;5003790;28;20045;-60
2023/12/31 10:30:13;;;;;;;4.85;2.97;;;;;;;11.52;81.17;99325.84;5010261;28;20053;-58
2023/12/31 10:32:39;;;;;;;14.18;2.85;;;;;;;11.50;80.67;99321.63;5004683;28;20223;-59
2023/12/31 10:35:06;;;;;;;3.83;2.00;;;;;;;11.53;79.08;99290.47;5014089;28;20739;-58
2023/12/31 10:37:31;;;;;;;2.92;1.95;;;;;;;11.49;80.48;99320.78;5016646;28;20783;-58
2023/12/31 10:39:57;;;;;;;2.53;1.83;;;;;;;11.47;79.63;99317.41;5009479;28;20033;-59
2023/12/31 10:42:22;;;;;;;3.03;1.70;;;;;;;11.53;78.47;99278.38;5008979;28;20034;-59
2023/12/31 10:44:53;;;;;;;3.67;1.13;;;;;;;11.58;76.64;99249.72;5014085;28;20045;-58
2023/12/31 10:47:22;;;;;;;2.72;1.50;;;;;;;11.60;76.77;99253.97;5004684;28;20033;-59
2023/12/31 10:49:49;;;;;;;2.33;1.10;;;;;;;11.62;76.37;99236.66;5005313;28;20050;-59
2023/12/31 10:52:15;;;;;;;3.95;1.90;;;;;;;11.59;76.93;99251.44;5007888;28;20041;-59
2023/12/31 10:54:51;;;;;;;2.30;1.35;;;;;;;11.50;77.00;99259.53;5006285;28;20052;-58
2023/12/31 10:57:19;;;;;;;2.08;1.52;;;;;;;11.49;76.73;99270.75;5008567;28;20025;-61
2023/12/31 10:59:46;;;;;;;3.60;1.13;;;;;;;11.51;75.23;99227.59;5003585;28;20041;-61
2023/12/31 11:02:20;;;;;;;2.90;1.42;;;;;;;11.52;74.96;99222.34;5007059;28;20686;-61
2023/12/31 11:04:49;;;;;;;2.72;1.10;;;;;;;11.52;74.25;99190.44;5004127;28;20034;-61
2023/12/31 11:07:16;;;;;;;3.08;1.10;;;;;;;11.53;75.13;99213.69;5004744;28;20034;-61
2023/12/31 11:09:43;;;;;;;1.13;0.95;;;;;;;11.45;74.83;99213.13;5013738;28;20041;-60
2023/12/31 11:12:09;;;;;;;1.95;0.70;;;;;;;11.44;74.12;99205.41;5009498;28;20037;-60
2023/12/31 11:14:37;;;;;;;1.92;0.85;;;;;;;11.40;73.80;99178.78;5000602;28;20037;-59
2023/12/31 11:17:11;;;;;;;2.17;0.57;;;;;;;11.43;73.22;99195.91;5017780;28;20415;-60
2023/12/31 11:19:43;;;;;;;0.93;0.77;;;;;;;11.44;73.12;99202.81;5006194;28;20072;-59
2023/12/31 11:22:32;;;;;;;2.70;0.75;;;;;;;11.40;74.17;99217.56;5005284;28;20038;-60
2023/12/31 11:24:58;;;;;;;2.38;0.70;;;;;;;11.32;74.33;99222.19;5007558;28;20046;-60
2023/12/31 11:27:26;;;;;;;1.55;0.75;;;;;;;11.27;74.52;99209.44;5009389;28;20769;-60
2023/12/31 11:29:54;;;;;;;1.00;0.52;;;;;;;11.21;74.48;99232.09;5006650;28;20033;-60